createdAt,value
2018-08-16T00:07:02.188Z,70.93
2018-08-16T00:15:23.196Z,70.06
2018-08-16T00:23:44.210Z,70.47
2018-08-16T00:32:05.213Z,71.00
2018-08-16T00:40:27.292Z,70.16
2018-08-16T00:48:48.367Z,70.66
2018-08-16T00:57:09.400Z,70.43
2018-08-16T01:05:30.835Z,71.33
2018-08-16T01:13:51.837Z,71.89
2018-08-16T01:22:13.952Z,71.42
2018-08-16T01:30:35.030Z,71.83
2018-08-16T01:38:56.245Z,72.78
2018-08-16T01:47:17.271Z,72.04
2018-08-16T01:55:38.382Z,72.00
2018-08-16T02:03:59.683Z,73.12
2018-08-16T02:12:20.732Z,73.48
2018-08-16T02:20:41.803Z,73.30
2018-08-16T02:29:02.842Z,73.94
2018-08-16T02:37:23.968Z,73.88
2018-08-16T02:45:45.012Z,74.32
2018-08-16T02:59:06.956Z,73.66
2018-08-16T03:07:27.983Z,74.26
2018-08-16T03:15:49.047Z,74.33
2018-08-16T03:24:10.103Z,74.12
2018-08-16T03:32:31.204Z,74.32
2018-08-16T03:40:54.323Z,75.45
2018-08-16T03:49:15.743Z,74.15
2018-08-16T03:57:36.763Z,74.25
2018-08-16T04:05:57.786Z,75.39
2018-08-16T04:14:19.143Z,74.63
2018-08-16T04:22:41.256Z,74.82
2018-08-16T04:31:02.303Z,74.46
2018-08-16T04:39:23.315Z,74.27
2018-08-16T04:47:44.331Z,76.01
2018-08-16T04:56:05.351Z,74.54
2018-08-16T05:04:26.357Z,73.84
2018-08-16T05:18:53.814Z,72.83
2018-08-16T05:27:14.879Z,72.82
2018-08-16T05:35:36.945Z,70.71
2018-08-16T05:43:57.948Z,69.51
2018-08-16T05:52:19.037Z,69.70
2018-08-16T06:00:40.079Z,68.76
2018-08-16T06:09:02.124Z,69.17
2018-08-16T06:17:23.183Z,67.39
2018-08-16T06:25:44.240Z,67.30
2018-08-16T06:34:05.262Z,65.96
2018-08-16T06:42:26.405Z,64.67
2018-08-16T06:50:51.291Z,64.11
2018-08-16T07:07:39.505Z,61.91
2018-08-16T07:24:30.965Z,58.44
2018-08-16T07:41:21.501Z,57.35
2018-08-16T07:58:08.919Z,58.42
2018-08-16T08:06:34.264Z,55.79
2018-08-16T08:14:55.643Z,55.97
2018-08-16T08:31:42.961Z,53.10
2018-08-16T08:48:30.556Z,51.37
2018-08-16T09:05:18.391Z,50.08
2018-08-16T09:13:39.838Z,51.29
2018-08-16T09:22:00.872Z,50.37
2018-08-16T09:53:07.527Z,48.06
2018-08-16T10:01:28.928Z,48.73
2018-08-16T10:09:51.033Z,47.42
2018-08-16T10:18:12.036Z,48.09
2018-08-16T10:26:34.188Z,46.40
2018-08-16T10:34:55.196Z,46.87
2018-08-16T10:43:16.223Z,45.18
2018-08-16T10:51:37.248Z,43.99
2018-08-16T10:59:58.289Z,42.93
2018-08-16T11:08:19.315Z,43.69
2018-08-16T11:16:41.462Z,42.73
2018-08-16T11:25:02.581Z,42.81
2018-08-16T11:33:28.255Z,41.21
2018-08-16T11:41:49.279Z,40.06
2018-08-16T11:50:15.386Z,39.00
2018-08-16T11:58:39.900Z,37.76
2018-08-16T12:07:01.061Z,34.12
2018-08-16T12:15:23.115Z,30.97
2018-08-16T12:23:44.392Z,29.67
2018-08-16T12:32:05.402Z,26.54
2018-08-16T12:40:26.423Z,24.75
2018-08-16T12:48:47.495Z,23.12
2018-08-16T12:57:09.541Z,22.03
2018-08-16T13:05:30.536Z,21.16
2018-08-16T13:13:51.650Z,21.50
2018-08-16T13:22:12.710Z,19.96
2018-08-16T13:30:33.735Z,18.93
2018-08-16T13:38:54.790Z,17.36
2018-08-16T13:47:15.830Z,18.13
2018-08-16T13:55:37.158Z,16.63
2018-08-16T14:03:58.179Z,17.27
2018-08-16T14:12:19.274Z,15.72
2018-08-16T14:20:40.554Z,15.14
2018-08-16T14:29:01.579Z,14.16
2018-08-16T14:37:22.955Z,15.61
2018-08-16T14:45:44.048Z,16.06
2018-08-16T14:54:05.090Z,15.00
2018-08-16T15:02:26.131Z,15.20
2018-08-16T15:10:50.361Z,15.16
2018-08-16T15:19:13.496Z,13.97
2018-08-16T15:27:51.419Z,15.63
2018-08-16T15:36:12.846Z,17.44
2018-08-16T15:44:33.930Z,16.75
2018-08-16T15:52:56.016Z,15.02
2018-08-16T16:01:17.066Z,14.62
2018-08-16T16:16:05.733Z,17.19
2018-08-16T16:24:26.773Z,19.38
2018-08-16T16:32:47.798Z,21.36
2018-08-16T16:41:08.833Z,24.21
2018-08-16T16:49:29.940Z,25.91
2018-08-16T16:57:50.978Z,26.62
2018-08-16T17:06:11.999Z,27.66
2018-08-16T17:14:33.102Z,27.70
2018-08-16T17:22:54.107Z,28.18
2018-08-16T17:31:15.130Z,31.06
2018-08-16T17:39:36.151Z,31.81
2018-08-16T17:47:57.182Z,34.40
2018-08-16T17:56:18.217Z,36.74
2018-08-16T18:04:39.228Z,38.09
2018-08-16T18:13:00.310Z,38.01
2018-08-16T18:21:21.330Z,39.35
2018-08-16T18:29:42.354Z,41.79
2018-08-16T18:38:03.360Z,42.52
2018-08-16T18:46:24.408Z,45.25
2018-08-16T18:54:45.420Z,45.44
2018-08-16T19:20:00.080Z,49.82
2018-08-16T19:28:22.574Z,50.14
2018-08-16T19:36:43.599Z,50.06
2018-08-16T19:45:04.638Z,51.27
2018-08-16T19:53:28.812Z,52.10
2018-08-16T20:01:53.655Z,53.40
2018-08-16T20:10:14.787Z,53.54
2018-08-16T20:18:35.829Z,53.80
2018-08-16T20:26:57.889Z,53.72
2018-08-16T20:35:19.227Z,55.14
2018-08-16T20:43:40.266Z,55.12
2018-08-16T20:52:02.514Z,56.43
2018-08-16T21:00:23.898Z,57.27
2018-08-16T21:08:45.991Z,56.89
2018-08-16T21:17:07.010Z,57.75
2018-08-16T21:25:28.012Z,59.50
2018-08-16T21:33:52.842Z,58.59
2018-08-16T21:42:13.863Z,59.84
2018-08-16T22:15:55.178Z,61.52
2018-08-16T22:24:16.190Z,62.96
2018-08-16T22:32:37.252Z,63.44
2018-08-16T22:41:03.011Z,62.87
2018-08-16T22:57:51.225Z,62.84
2018-08-16T23:06:12.277Z,64.03
